West Fairview, Pennsylvania
Current Conditions -  °F | °C
As of 12:56 PM on Thursday 30 Oct 2014 (Local Time) from KCXY Reporting Station
Broken Clouds Broken Clouds  
Wind Chill: 54°   Ceiling: 4500
Heat Index: 54°   Visibility: 10mi
Dew Point: 37°   Wind: 9mph
Humidity: 53%   Direction: 300°WNW
Pressure: 30.05"   Gusts: NA
Location:  40.2947°N, 76.9833°W
Report Text: KCXY 301656Z 30008KT 10SM BKN045 12/03 A3005 RMK AO2 SLP177 T01220028
Loading
Personal Weather Stations






























Interactive Weather Map
Tropical Storm Tracking
New forecast layout! Learn more

10-Day Weather Forecast

Advertisements
Track Severe Weather on mobile